sensor_id;sensor_type;location;lat;lon;timestamp;P1;durP1;ratioP1;P2;durP2;ratioP2
31306;SDS011;17935;51.120;13.132;2022-08-30T00:00:33;37.60;;;15.32;;
31306;SDS011;17935;51.120;13.132;2022-08-30T00:03:18;30.52;;;14.68;;
31306;SDS011;17935;51.120;13.132;2022-08-30T00:05:44;29.80;;;14.55;;
31306;SDS011;17935;51.120;13.132;2022-08-30T00:08:11;29.48;;;14.65;;
31306;SDS011;17935;51.120;13.132;2022-08-30T00:10:37;24.58;;;14.10;;
31306;SDS011;17935;51.120;13.132;2022-08-30T00:13:04;28.52;;;15.50;;
31306;SDS011;17935;51.120;13.132;2022-08-30T00:15:31;34.88;;;15.43;;
31306;SDS011;17935;51.120;13.132;2022-08-30T00:17:57;30.38;;;15.95;;
31306;SDS011;17935;51.120;13.132;2022-08-30T00:20:27;30.67;;;16.80;;
31306;SDS011;17935;51.120;13.132;2022-08-30T00:22:53;29.85;;;16.58;;
31306;SDS011;17935;51.120;13.132;2022-08-30T00:25:19;42.40;;;20.15;;
31306;SDS011;17935;51.120;13.132;2022-08-30T00:27:45;33.22;;;18.77;;
31306;SDS011;17935;51.120;13.132;2022-08-30T00:30:13;27.08;;;15.25;;
31306;SDS011;17935;51.120;13.132;2022-08-30T00:32:39;37.08;;;17.77;;
31306;SDS011;17935;51.120;13.132;2022-08-30T00:35:06;25.95;;;15.20;;
31306;SDS011;17935;51.120;13.132;2022-08-30T00:37:32;34.05;;;18.58;;
31306;SDS011;17935;51.120;13.132;2022-08-30T00:39:58;34.33;;;19.35;;
31306;SDS011;17935;51.120;13.132;2022-08-30T00:42:24;36.35;;;17.25;;
31306;SDS011;17935;51.120;13.132;2022-08-30T00:44:51;42.25;;;18.50;;
31306;SDS011;17935;51.120;13.132;2022-08-30T00:47:17;30.17;;;15.50;;
31306;SDS011;17935;51.120;13.132;2022-08-30T00:49:44;28.65;;;17.15;;
31306;SDS011;17935;51.120;13.132;2022-08-30T00:52:11;29.85;;;15.93;;
31306;SDS011;17935;51.120;13.132;2022-08-30T00:54:37;34.45;;;16.98;;
31306;SDS011;17935;51.120;13.132;2022-08-30T00:57:04;36.85;;;17.95;;
31306;SDS011;17935;51.120;13.132;2022-08-30T00:59:30;35.45;;;16.77;;
31306;SDS011;17935;51.120;13.132;2022-08-30T01:01:56;36.28;;;18.50;;
31306;SDS011;17935;51.120;13.132;2022-08-30T01:04:23;30.92;;;18.95;;
31306;SDS011;17935;51.120;13.132;2022-08-30T01:06:49;29.83;;;18.17;;
31306;SDS011;17935;51.120;13.132;2022-08-30T01:09:16;33.42;;;16.92;;
31306;SDS011;17935;51.120;13.132;2022-08-30T01:11:42;41.88;;;19.00;;
31306;SDS011;17935;51.120;13.132;2022-08-30T01:14:09;28.17;;;16.65;;
31306;SDS011;17935;51.120;13.132;2022-08-30T01:16:36;36.53;;;20.33;;
31306;SDS011;17935;51.120;13.132;2022-08-30T01:19:02;36.75;;;18.50;;
31306;SDS011;17935;51.120;13.132;2022-08-30T01:24:03;40.22;;;18.95;;
31306;SDS011;17935;51.120;13.132;2022-08-30T01:26:30;38.25;;;18.02;;
31306;SDS011;17935;51.120;13.132;2022-08-30T01:28:59;40.42;;;19.80;;
31306;SDS011;17935;51.120;13.132;2022-08-30T01:31:26;33.10;;;17.98;;
31306;SDS011;17935;51.120;13.132;2022-08-30T01:33:51;35.35;;;19.25;;
31306;SDS011;17935;51.120;13.132;2022-08-30T01:36:18;40.60;;;20.00;;
31306;SDS011;17935;51.120;13.132;2022-08-30T01:41:16;34.65;;;18.48;;
31306;SDS011;17935;51.120;13.132;2022-08-30T01:43:43;36.60;;;16.90;;
31306;SDS011;17935;51.120;13.132;2022-08-30T01:46:09;34.65;;;19.55;;
31306;SDS011;17935;51.120;13.132;2022-08-30T01:48:36;42.55;;;20.80;;
31306;SDS011;17935;51.120;13.132;2022-08-30T01:51:02;45.38;;;21.98;;
31306;SDS011;17935;51.120;13.132;2022-08-30T01:53:28;45.75;;;22.35;;
31306;SDS011;17935;51.120;13.132;2022-08-30T01:55:54;47.55;;;22.08;;
31306;SDS011;17935;51.120;13.132;2022-08-30T01:58:20;40.10;;;20.67;;
31306;SDS011;17935;51.120;13.132;2022-08-30T02:00:47;39.85;;;19.50;;
31306;SDS011;17935;51.120;13.132;2022-08-30T02:03:13;32.38;;;18.25;;
31306;SDS011;17935;51.120;13.132;2022-08-30T02:05:39;35.47;;;19.00;;
31306;SDS011;17935;51.120;13.132;2022-08-30T02:08:05;35.65;;;19.77;;
31306;SDS011;17935;51.120;13.132;2022-08-30T02:10:31;34.67;;;19.45;;
31306;SDS011;17935;51.120;13.132;2022-08-30T02:12:57;32.35;;;17.95;;
31306;SDS011;17935;51.120;13.132;2022-08-30T02:15:23;38.72;;;20.30;;
31306;SDS011;17935;51.120;13.132;2022-08-30T02:17:49;39.28;;;20.08;;
31306;SDS011;17935;51.120;13.132;2022-08-30T02:20:16;32.22;;;18.77;;
31306;SDS011;17935;51.120;13.132;2022-08-30T02:22:42;32.80;;;18.15;;
31306;SDS011;17935;51.120;13.132;2022-08-30T02:25:08;36.03;;;19.83;;
31306;SDS011;17935;51.120;13.132;2022-08-30T02:27:34;37.30;;;20.15;;
31306;SDS011;17935;51.120;13.132;2022-08-30T02:30:00;39.10;;;20.27;;
31306;SDS011;17935;51.120;13.132;2022-08-30T02:32:26;43.97;;;21.10;;
31306;SDS011;17935;51.120;13.132;2022-08-30T02:34:52;39.97;;;22.30;;
31306;SDS011;17935;51.120;13.132;2022-08-30T02:37:19;43.50;;;21.95;;
31306;SDS011;17935;51.120;13.132;2022-08-30T02:39:45;40.42;;;20.73;;
31306;SDS011;17935;51.120;13.132;2022-08-30T02:42:11;35.80;;;21.73;;
31306;SDS011;17935;51.120;13.132;2022-08-30T02:44:37;44.58;;;20.02;;
31306;SDS011;17935;51.120;13.132;2022-08-30T02:47:03;38.17;;;20.25;;
31306;SDS011;17935;51.120;13.132;2022-08-30T02:49:29;42.38;;;20.58;;
31306;SDS011;17935;51.120;13.132;2022-08-30T02:51:55;37.75;;;19.42;;
31306;SDS011;17935;51.120;13.132;2022-08-30T02:54:21;35.00;;;18.38;;
31306;SDS011;17935;51.120;13.132;2022-08-30T02:56:47;38.88;;;20.20;;
31306;SDS011;17935;51.120;13.132;2022-08-30T02:59:14;38.40;;;21.65;;
31306;SDS011;17935;51.120;13.132;2022-08-30T03:01:40;45.38;;;23.05;;
31306;SDS011;17935;51.120;13.132;2022-08-30T03:04:06;39.97;;;21.52;;
31306;SDS011;17935;51.120;13.132;2022-08-30T03:06:32;43.95;;;21.33;;
31306;SDS011;17935;51.120;13.132;2022-08-30T03:08:58;41.85;;;21.17;;
31306;SDS011;17935;51.120;13.132;2022-08-30T03:11:24;35.35;;;20.15;;
31306;SDS011;17935;51.120;13.132;2022-08-30T03:13:50;38.47;;;20.63;;
31306;SDS011;17935;51.120;13.132;2022-08-30T03:16:16;43.53;;;20.92;;
31306;SDS011;17935;51.120;13.132;2022-08-30T03:18:42;34.83;;;19.50;;
31306;SDS011;17935;51.120;13.132;2022-08-30T03:21:09;37.65;;;19.27;;
31306;SDS011;17935;51.120;13.132;2022-08-30T03:23:35;42.00;;;20.98;;
31306;SDS011;17935;51.120;13.132;2022-08-30T03:26:01;42.45;;;23.15;;
31306;SDS011;17935;51.120;13.132;2022-08-30T03:28:27;40.35;;;20.08;;
31306;SDS011;17935;51.120;13.132;2022-08-30T03:30:53;40.38;;;22.70;;
31306;SDS011;17935;51.120;13.132;2022-08-30T03:33:20;48.00;;;23.15;;
31306;SDS011;17935;51.120;13.132;2022-08-30T03:35:46;42.88;;;22.88;;
31306;SDS011;17935;51.120;13.132;2022-08-30T03:38:13;50.05;;;23.67;;
31306;SDS011;17935;51.120;13.132;2022-08-30T03:40:39;48.92;;;23.33;;
31306;SDS011;17935;51.120;13.132;2022-08-30T03:43:05;44.13;;;22.58;;
31306;SDS011;17935;51.120;13.132;2022-08-30T03:45:31;47.17;;;23.95;;
31306;SDS011;17935;51.120;13.132;2022-08-30T03:47:58;49.53;;;24.05;;
31306;SDS011;17935;51.120;13.132;2022-08-30T03:50:26;48.95;;;24.40;;
31306;SDS011;17935;51.120;13.132;2022-08-30T03:52:52;50.65;;;25.02;;
31306;SDS011;17935;51.120;13.132;2022-08-30T03:55:18;48.35;;;23.73;;
31306;SDS011;17935;51.120;13.132;2022-08-30T03:57:44;46.80;;;22.20;;
31306;SDS011;17935;51.120;13.132;2022-08-30T04:00:10;42.05;;;21.63;;
31306;SDS011;17935;51.120;13.132;2022-08-30T04:02:37;53.20;;;22.63;;
31306;SDS011;17935;51.120;13.132;2022-08-30T04:05:03;47.72;;;22.02;;
31306;SDS011;17935;51.120;13.132;2022-08-30T04:07:30;47.70;;;24.40;;
31306;SDS011;17935;51.120;13.132;2022-08-30T04:09:56;49.72;;;25.70;;
31306;SDS011;17935;51.120;13.132;2022-08-30T04:12:21;38.55;;;21.13;;
31306;SDS011;17935;51.120;13.132;2022-08-30T04:14:47;42.45;;;21.63;;
31306;SDS011;17935;51.120;13.132;2022-08-30T04:17:13;42.20;;;22.98;;
31306;SDS011;17935;51.120;13.132;2022-08-30T04:19:39;40.78;;;20.90;;
31306;SDS011;17935;51.120;13.132;2022-08-30T04:22:05;37.83;;;20.08;;
31306;SDS011;17935;51.120;13.132;2022-08-30T04:24:31;34.33;;;18.05;;
31306;SDS011;17935;51.120;13.132;2022-08-30T04:26:58;35.35;;;17.80;;
31306;SDS011;17935;51.120;13.132;2022-08-30T04:29:24;25.15;;;15.95;;
31306;SDS011;17935;51.120;13.132;2022-08-30T04:31:50;30.35;;;15.45;;
31306;SDS011;17935;51.120;13.132;2022-08-30T04:34:16;25.98;;;15.13;;
31306;SDS011;17935;51.120;13.132;2022-08-30T04:36:42;25.25;;;14.07;;
31306;SDS011;17935;51.120;13.132;2022-08-30T04:39:08;27.65;;;14.93;;
31306;SDS011;17935;51.120;13.132;2022-08-30T04:41:35;25.45;;;14.65;;
31306;SDS011;17935;51.120;13.132;2022-08-30T04:44:01;22.70;;;12.82;;
31306;SDS011;17935;51.120;13.132;2022-08-30T04:46:28;25.05;;;12.77;;
31306;SDS011;17935;51.120;13.132;2022-08-30T04:48:54;21.02;;;11.32;;
31306;SDS011;17935;51.120;13.132;2022-08-30T04:51:20;18.10;;;10.70;;
31306;SDS011;17935;51.120;13.132;2022-08-30T04:53:46;21.13;;;10.95;;
31306;SDS011;17935;51.120;13.132;2022-08-30T04:56:13;17.02;;;9.65;;
31306;SDS011;17935;51.120;13.132;2022-08-30T04:58:40;15.02;;;9.50;;
31306;SDS011;17935;51.120;13.132;2022-08-30T05:01:10;13.40;;;8.68;;
31306;SDS011;17935;51.120;13.132;2022-08-30T05:03:36;12.52;;;8.85;;
31306;SDS011;17935;51.120;13.132;2022-08-30T05:06:02;15.35;;;8.88;;
31306;SDS011;17935;51.120;13.132;2022-08-30T05:08:28;13.40;;;8.38;;
31306;SDS011;17935;51.120;13.132;2022-08-30T05:10:54;11.43;;;8.32;;
31306;SDS011;17935;51.120;13.132;2022-08-30T05:13:20;11.55;;;5.93;;
31306;SDS011;17935;51.120;13.132;2022-08-30T05:15:46;8.55;;;6.60;;
31306;SDS011;17935;51.120;13.132;2022-08-30T05:18:13;11.13;;;6.03;;
31306;SDS011;17935;51.120;13.132;2022-08-30T05:20:40;5.82;;;4.85;;
31306;SDS011;17935;51.120;13.132;2022-08-30T05:23:06;8.63;;;4.68;;
31306;SDS011;17935;51.120;13.132;2022-08-30T05:25:35;7.45;;;3.83;;
31306;SDS011;17935;51.120;13.132;2022-08-30T05:28:01;6.60;;;4.35;;
31306;SDS011;17935;51.120;13.132;2022-08-30T05:30:27;6.32;;;3.83;;
31306;SDS011;17935;51.120;13.132;2022-08-30T05:32:53;7.25;;;4.03;;
31306;SDS011;17935;51.120;13.132;2022-08-30T05:35:19;4.22;;;3.42;;
31306;SDS011;17935;51.120;13.132;2022-08-30T05:37:45;6.10;;;3.50;;
31306;SDS011;17935;51.120;13.132;2022-08-30T05:40:12;6.20;;;3.50;;
31306;SDS011;17935;51.120;13.132;2022-08-30T05:42:41;3.88;;;2.92;;
31306;SDS011;17935;51.120;13.132;2022-08-30T05:45:07;6.20;;;2.97;;
31306;SDS011;17935;51.120;13.132;2022-08-30T05:47:34;5.68;;;3.63;;
31306;SDS011;17935;51.120;13.132;2022-08-30T05:50:00;5.10;;;2.92;;
31306;SDS011;17935;51.120;13.132;2022-08-30T05:52:26;7.70;;;3.45;;
31306;SDS011;17935;51.120;13.132;2022-08-30T05:54:53;5.75;;;3.25;;
31306;SDS011;17935;51.120;13.132;2022-08-30T05:57:19;4.70;;;2.88;;
31306;SDS011;17935;51.120;13.132;2022-08-30T05:59:45;9.20;;;3.40;;
31306;SDS011;17935;51.120;13.132;2022-08-30T06:02:11;7.97;;;3.50;;
31306;SDS011;17935;51.120;13.132;2022-08-30T06:04:37;4.03;;;2.78;;
31306;SDS011;17935;51.120;13.132;2022-08-30T06:07:03;4.20;;;2.55;;
31306;SDS011;17935;51.120;13.132;2022-08-30T06:09:29;7.80;;;2.72;;
31306;SDS011;17935;51.120;13.132;2022-08-30T06:11:56;6.85;;;3.35;;
31306;SDS011;17935;51.120;13.132;2022-08-30T06:14:22;6.07;;;2.83;;
31306;SDS011;17935;51.120;13.132;2022-08-30T06:16:48;7.47;;;3.75;;
31306;SDS011;17935;51.120;13.132;2022-08-30T06:19:15;3.85;;;3.00;;
31306;SDS011;17935;51.120;13.132;2022-08-30T06:21:42;5.10;;;2.83;;
31306;SDS011;17935;51.120;13.132;2022-08-30T06:24:09;4.32;;;3.03;;
31306;SDS011;17935;51.120;13.132;2022-08-30T06:26:39;6.38;;;3.20;;
31306;SDS011;17935;51.120;13.132;2022-08-30T06:29:05;6.05;;;3.15;;
31306;SDS011;17935;51.120;13.132;2022-08-30T06:31:32;6.57;;;2.88;;
31306;SDS011;17935;51.120;13.132;2022-08-30T06:33:58;4.30;;;2.83;;
31306;SDS011;17935;51.120;13.132;2022-08-30T06:36:24;7.45;;;2.80;;
31306;SDS011;17935;51.120;13.132;2022-08-30T06:38:51;5.00;;;3.03;;
31306;SDS011;17935;51.120;13.132;2022-08-30T06:41:18;6.72;;;3.15;;
31306;SDS011;17935;51.120;13.132;2022-08-30T06:43:44;3.45;;;2.80;;
31306;SDS011;17935;51.120;13.132;2022-08-30T06:46:12;9.57;;;3.67;;
31306;SDS011;17935;51.120;13.132;2022-08-30T06:48:38;5.05;;;2.80;;
31306;SDS011;17935;51.120;13.132;2022-08-30T06:51:05;6.90;;;2.83;;
31306;SDS011;17935;51.120;13.132;2022-08-30T06:53:31;3.03;;;2.22;;
31306;SDS011;17935;51.120;13.132;2022-08-30T06:55:58;3.75;;;2.53;;
31306;SDS011;17935;51.120;13.132;2022-08-30T06:58:24;3.42;;;2.55;;
31306;SDS011;17935;51.120;13.132;2022-08-30T07:00:50;5.65;;;3.05;;
31306;SDS011;17935;51.120;13.132;2022-08-30T07:03:16;3.97;;;2.67;;
31306;SDS011;17935;51.120;13.132;2022-08-30T07:05:43;4.70;;;2.92;;
31306;SDS011;17935;51.120;13.132;2022-08-30T07:08:09;5.90;;;3.13;;
31306;SDS011;17935;51.120;13.132;2022-08-30T07:10:38;7.25;;;3.55;;
31306;SDS011;17935;51.120;13.132;2022-08-30T07:13:04;2.65;;;2.42;;
31306;SDS011;17935;51.120;13.132;2022-08-30T07:15:30;5.85;;;3.13;;
31306;SDS011;17935;51.120;13.132;2022-08-30T07:17:56;5.45;;;2.75;;
31306;SDS011;17935;51.120;13.132;2022-08-30T07:20:41;5.28;;;3.28;;
31306;SDS011;17935;51.120;13.132;2022-08-30T07:23:08;3.55;;;2.60;;
31306;SDS011;17935;51.120;13.132;2022-08-30T07:25:35;5.00;;;2.75;;
31306;SDS011;17935;51.120;13.132;2022-08-30T07:28:01;3.28;;;2.55;;
31306;SDS011;17935;51.120;13.132;2022-08-30T07:30:27;4.82;;;2.10;;
31306;SDS011;17935;51.120;13.132;2022-08-30T07:32:55;3.08;;;2.40;;
31306;SDS011;17935;51.120;13.132;2022-08-30T07:35:21;6.97;;;2.47;;
31306;SDS011;17935;51.120;13.132;2022-08-30T07:37:47;6.50;;;3.22;;
31306;SDS011;17935;51.120;13.132;2022-08-30T07:40:13;7.85;;;2.97;;
31306;SDS011;17935;51.120;13.132;2022-08-30T07:42:39;4.00;;;2.47;;
31306;SDS011;17935;51.120;13.132;2022-08-30T07:45:05;3.63;;;2.55;;
31306;SDS011;17935;51.120;13.132;2022-08-30T07:47:32;6.13;;;2.65;;
31306;SDS011;17935;51.120;13.132;2022-08-30T07:49:58;6.40;;;2.60;;
31306;SDS011;17935;51.120;13.132;2022-08-30T07:52:25;6.35;;;2.40;;
31306;SDS011;17935;51.120;13.132;2022-08-30T07:54:53;4.15;;;2.45;;
31306;SDS011;17935;51.120;13.132;2022-08-30T07:57:19;2.80;;;2.20;;
31306;SDS011;17935;51.120;13.132;2022-08-30T07:59:45;3.03;;;2.70;;
31306;SDS011;17935;51.120;13.132;2022-08-30T08:02:11;3.45;;;2.33;;
31306;SDS011;17935;51.120;13.132;2022-08-30T08:04:37;6.28;;;2.78;;
31306;SDS011;17935;51.120;13.132;2022-08-30T08:07:03;5.57;;;3.00;;
31306;SDS011;17935;51.120;13.132;2022-08-30T08:09:29;6.22;;;2.00;;
31306;SDS011;17935;51.120;13.132;2022-08-30T08:11:55;3.35;;;2.13;;
31306;SDS011;17935;51.120;13.132;2022-08-30T08:14:21;3.88;;;2.10;;
31306;SDS011;17935;51.120;13.132;2022-08-30T08:16:47;5.00;;;2.00;;
31306;SDS011;17935;51.120;13.132;2022-08-30T08:19:13;6.03;;;2.58;;
31306;SDS011;17935;51.120;13.132;2022-08-30T08:21:39;8.10;;;2.53;;
31306;SDS011;17935;51.120;13.132;2022-08-30T08:24:06;2.63;;;2.10;;
31306;SDS011;17935;51.120;13.132;2022-08-30T08:26:33;3.58;;;2.50;;
31306;SDS011;17935;51.120;13.132;2022-08-30T08:29:00;5.50;;;2.67;;
31306;SDS011;17935;51.120;13.132;2022-08-30T08:31:27;3.33;;;2.50;;
31306;SDS011;17935;51.120;13.132;2022-08-30T08:33:54;3.63;;;2.22;;
31306;SDS011;17935;51.120;13.132;2022-08-30T08:36:20;3.70;;;1.98;;
31306;SDS011;17935;51.120;13.132;2022-08-30T08:38:46;4.65;;;1.98;;
31306;SDS011;17935;51.120;13.132;2022-08-30T08:43:47;3.47;;;1.73;;
31306;SDS011;17935;51.120;13.132;2022-08-30T08:48:53;2.58;;;2.08;;
31306;SDS011;17935;51.120;13.132;2022-08-30T08:51:22;2.92;;;2.15;;
31306;SDS011;17935;51.120;13.132;2022-08-30T08:54:08;4.22;;;1.70;;
31306;SDS011;17935;51.120;13.132;2022-08-30T08:56:35;3.63;;;1.65;;
31306;SDS011;17935;51.120;13.132;2022-08-30T08:59:02;2.40;;;1.88;;
31306;SDS011;17935;51.120;13.132;2022-08-30T09:01:29;4.38;;;2.35;;
31306;SDS011;17935;51.120;13.132;2022-08-30T09:03:57;2.33;;;1.65;;
31306;SDS011;17935;51.120;13.132;2022-08-30T09:06:39;3.50;;;1.90;;
31306;SDS011;17935;51.120;13.132;2022-08-30T09:09:06;1.92;;;1.70;;
31306;SDS011;17935;51.120;13.132;2022-08-30T09:11:33;2.65;;;1.75;;
31306;SDS011;17935;51.120;13.132;2022-08-30T09:13:59;3.05;;;2.10;;
31306;SDS011;17935;51.120;13.132;2022-08-30T09:19:28;2.85;;;1.90;;
31306;SDS011;17935;51.120;13.132;2022-08-30T09:21:56;3.03;;;1.85;;
31306;SDS011;17935;51.120;13.132;2022-08-30T09:24:22;5.25;;;2.03;;
31306;SDS011;17935;51.120;13.132;2022-08-30T09:26:48;5.13;;;2.30;;
31306;SDS011;17935;51.120;13.132;2022-08-30T09:29:18;5.97;;;2.30;;
31306;SDS011;17935;51.120;13.132;2022-08-30T09:31:46;3.72;;;2.80;;
31306;SDS011;17935;51.120;13.132;2022-08-30T09:34:15;5.10;;;2.40;;
31306;SDS011;17935;51.120;13.132;2022-08-30T09:36:43;5.63;;;1.98;;
31306;SDS011;17935;51.120;13.132;2022-08-30T09:39:25;6.20;;;2.22;;
31306;SDS011;17935;51.120;13.132;2022-08-30T09:41:53;4.90;;;3.40;;
31306;SDS011;17935;51.120;13.132;2022-08-30T09:44:20;5.05;;;3.60;;
31306;SDS011;17935;51.120;13.132;2022-08-30T09:46:57;3.80;;;2.80;;
31306;SDS011;17935;51.120;13.132;2022-08-30T09:49:28;8.93;;;3.70;;
31306;SDS011;17935;51.120;13.132;2022-08-30T09:51:59;4.55;;;3.30;;
31306;SDS011;17935;51.120;13.132;2022-08-30T09:54:34;9.20;;;3.53;;
31306;SDS011;17935;51.120;13.132;2022-08-30T09:59:41;4.93;;;2.92;;
31306;SDS011;17935;51.120;13.132;2022-08-30T10:02:20;6.78;;;3.30;;
31306;SDS011;17935;51.120;13.132;2022-08-30T10:04:52;5.07;;;3.05;;
31306;SDS011;17935;51.120;13.132;2022-08-30T10:07:27;7.57;;;2.83;;
31306;SDS011;17935;51.120;13.132;2022-08-30T10:10:07;3.85;;;2.53;;
31306;SDS011;17935;51.120;13.132;2022-08-30T10:12:38;3.15;;;2.55;;
31306;SDS011;17935;51.120;13.132;2022-08-30T10:15:10;4.80;;;2.40;;
31306;SDS011;17935;51.120;13.132;2022-08-30T10:17:55;7.35;;;2.70;;
31306;SDS011;17935;51.120;13.132;2022-08-30T10:20:30;5.80;;;2.75;;
31306;SDS011;17935;51.120;13.132;2022-08-30T10:22:59;4.78;;;2.70;;
31306;SDS011;17935;51.120;13.132;2022-08-30T10:25:31;2.95;;;2.00;;
31306;SDS011;17935;51.120;13.132;2022-08-30T10:28:08;4.97;;;2.50;;
31306;SDS011;17935;51.120;13.132;2022-08-30T10:30:39;6.97;;;2.90;;
31306;SDS011;17935;51.120;13.132;2022-08-30T10:33:07;3.42;;;2.45;;
31306;SDS011;17935;51.120;13.132;2022-08-30T10:35:36;4.50;;;2.65;;
31306;SDS011;17935;51.120;13.132;2022-08-30T10:38:05;2.67;;;2.25;;
31306;SDS011;17935;51.120;13.132;2022-08-30T10:40:38;6.15;;;2.40;;
31306;SDS011;17935;51.120;13.132;2022-08-30T10:46:15;6.10;;;2.72;;
31306;SDS011;17935;51.120;13.132;2022-08-30T10:53:54;4.75;;;2.53;;
31306;SDS011;17935;51.120;13.132;2022-08-30T10:56:22;4.13;;;2.50;;
31306;SDS011;17935;51.120;13.132;2022-08-30T10:58:50;6.78;;;2.92;;
31306;SDS011;17935;51.120;13.132;2022-08-30T11:11:53;5.55;;;2.63;;
31306;SDS011;17935;51.120;13.132;2022-08-30T11:14:22;7.13;;;2.38;;
31306;SDS011;17935;51.120;13.132;2022-08-30T11:16:49;5.30;;;1.90;;
31306;SDS011;17935;51.120;13.132;2022-08-30T11:19:18;3.67;;;2.42;;
31306;SDS011;17935;51.120;13.132;2022-08-30T11:21:45;5.00;;;2.72;;
31306;SDS011;17935;51.120;13.132;2022-08-30T11:24:15;11.30;;;2.92;;
31306;SDS011;17935;51.120;13.132;2022-08-30T11:37:29;5.70;;;2.33;;
31306;SDS011;17935;51.120;13.132;2022-08-30T11:39:59;3.15;;;2.25;;
31306;SDS011;17935;51.120;13.132;2022-08-30T11:42:27;6.55;;;2.58;;
31306;SDS011;17935;51.120;13.132;2022-08-30T11:45:13;3.17;;;2.03;;
31306;SDS011;17935;51.120;13.132;2022-08-30T11:47:59;4.40;;;2.53;;
31306;SDS011;17935;51.120;13.132;2022-08-30T11:52:58;4.38;;;2.00;;
31306;SDS011;17935;51.120;13.132;2022-08-30T11:55:40;3.55;;;2.30;;
31306;SDS011;17935;51.120;13.132;2022-08-30T11:58:13;2.75;;;2.30;;
31306;SDS011;17935;51.120;13.132;2022-08-30T12:00:43;7.38;;;2.63;;
31306;SDS011;17935;51.120;13.132;2022-08-30T12:10:49;5.47;;;2.90;;
31306;SDS011;17935;51.120;13.132;2022-08-30T12:16:03;4.95;;;2.83;;
31306;SDS011;17935;51.120;13.132;2022-08-30T12:18:41;12.23;;;4.32;;
31306;SDS011;17935;51.120;13.132;2022-08-30T12:23:57;4.32;;;3.00;;
31306;SDS011;17935;51.120;13.132;2022-08-30T12:28:56;5.72;;;3.00;;
31306;SDS011;17935;51.120;13.132;2022-08-30T12:31:29;7.97;;;3.72;;
31306;SDS011;17935;51.120;13.132;2022-08-30T12:33:57;4.82;;;2.97;;
31306;SDS011;17935;51.120;13.132;2022-08-30T12:36:34;6.85;;;2.97;;
31306;SDS011;17935;51.120;13.132;2022-08-30T12:39:07;3.80;;;2.97;;
31306;SDS011;17935;51.120;13.132;2022-08-30T12:41:33;4.13;;;2.33;;
31306;SDS011;17935;51.120;13.132;2022-08-30T12:43:59;4.90;;;3.20;;
31306;SDS011;17935;51.120;13.132;2022-08-30T12:46:25;6.20;;;3.05;;
31306;SDS011;17935;51.120;13.132;2022-08-30T12:48:52;6.18;;;2.75;;
31306;SDS011;17935;51.120;13.132;2022-08-30T12:51:40;3.55;;;2.75;;
31306;SDS011;17935;51.120;13.132;2022-08-30T12:54:06;6.32;;;3.13;;
31306;SDS011;17935;51.120;13.132;2022-08-30T12:56:49;6.47;;;3.22;;
31306;SDS011;17935;51.120;13.132;2022-08-30T13:02:14;4.90;;;3.63;;
31306;SDS011;17935;51.120;13.132;2022-08-30T13:04:40;7.85;;;3.58;;
31306;SDS011;17935;51.120;13.132;2022-08-30T13:07:07;6.78;;;4.75;;
31306;SDS011;17935;51.120;13.132;2022-08-30T13:11:59;9.20;;;4.68;;
31306;SDS011;17935;51.120;13.132;2022-08-30T13:17:06;11.80;;;4.43;;
31306;SDS011;17935;51.120;13.132;2022-08-30T13:19:34;9.95;;;4.13;;
31306;SDS011;17935;51.120;13.132;2022-08-30T13:22:00;11.25;;;4.45;;
31306;SDS011;17935;51.120;13.132;2022-08-30T13:24:27;5.40;;;3.60;;
31306;SDS011;17935;51.120;13.132;2022-08-30T13:26:53;5.50;;;3.78;;
31306;SDS011;17935;51.120;13.132;2022-08-30T13:29:21;8.20;;;4.65;;
31306;SDS011;17935;51.120;13.132;2022-08-30T13:31:47;5.53;;;3.72;;
31306;SDS011;17935;51.120;13.132;2022-08-30T13:34:13;5.85;;;4.13;;
31306;SDS011;17935;51.120;13.132;2022-08-30T13:36:45;6.78;;;4.10;;
31306;SDS011;17935;51.120;13.132;2022-08-30T13:39:11;9.20;;;3.78;;
31306;SDS011;17935;51.120;13.132;2022-08-30T13:41:37;4.90;;;3.90;;
31306;SDS011;17935;51.120;13.132;2022-08-30T13:44:04;6.55;;;3.88;;
31306;SDS011;17935;51.120;13.132;2022-08-30T13:46:30;7.60;;;3.50;;
31306;SDS011;17935;51.120;13.132;2022-08-30T13:48:57;9.35;;;3.70;;
31306;SDS011;17935;51.120;13.132;2022-08-30T13:51:25;10.07;;;3.60;;
31306;SDS011;17935;51.120;13.132;2022-08-30T13:53:51;4.97;;;3.55;;
31306;SDS011;17935;51.120;13.132;2022-08-30T13:56:17;7.05;;;3.70;;
31306;SDS011;17935;51.120;13.132;2022-08-30T13:58:43;5.70;;;3.78;;
31306;SDS011;17935;51.120;13.132;2022-08-30T14:01:09;5.75;;;3.83;;
31306;SDS011;17935;51.120;13.132;2022-08-30T14:03:35;8.38;;;3.60;;
31306;SDS011;17935;51.120;13.132;2022-08-30T14:06:01;8.63;;;3.42;;
31306;SDS011;17935;51.120;13.132;2022-08-30T14:08:27;7.82;;;3.70;;
31306;SDS011;17935;51.120;13.132;2022-08-30T14:10:54;5.20;;;3.22;;
31306;SDS011;17935;51.120;13.132;2022-08-30T14:13:20;7.13;;;3.65;;
31306;SDS011;17935;51.120;13.132;2022-08-30T14:15:46;7.22;;;3.20;;
31306;SDS011;17935;51.120;13.132;2022-08-30T14:18:13;3.97;;;3.20;;
31306;SDS011;17935;51.120;13.132;2022-08-30T14:20:39;5.43;;;3.50;;
31306;SDS011;17935;51.120;13.132;2022-08-30T14:23:05;6.65;;;3.40;;
31306;SDS011;17935;51.120;13.132;2022-08-30T14:25:32;7.55;;;3.58;;
31306;SDS011;17935;51.120;13.132;2022-08-30T14:27:58;6.68;;;3.65;;
31306;SDS011;17935;51.120;13.132;2022-08-30T14:30:25;7.03;;;3.65;;
31306;SDS011;17935;51.120;13.132;2022-08-30T14:32:51;9.88;;;3.67;;
31306;SDS011;17935;51.120;13.132;2022-08-30T14:35:17;5.35;;;3.88;;
31306;SDS011;17935;51.120;13.132;2022-08-30T14:37:45;8.93;;;3.63;;
31306;SDS011;17935;51.120;13.132;2022-08-30T14:40:11;5.60;;;3.45;;
31306;SDS011;17935;51.120;13.132;2022-08-30T14:42:36;8.73;;;4.35;;
31306;SDS011;17935;51.120;13.132;2022-08-30T14:45:04;4.50;;;3.33;;
31306;SDS011;17935;51.120;13.132;2022-08-30T14:47:30;9.68;;;3.80;;
31306;SDS011;17935;51.120;13.132;2022-08-30T14:49:56;6.22;;;3.65;;
31306;SDS011;17935;51.120;13.132;2022-08-30T14:52:24;7.90;;;3.78;;
31306;SDS011;17935;51.120;13.132;2022-08-30T14:54:50;3.70;;;3.22;;
31306;SDS011;17935;51.120;13.132;2022-08-30T14:57:16;4.55;;;3.38;;
31306;SDS011;17935;51.120;13.132;2022-08-30T14:59:42;10.80;;;4.18;;
31306;SDS011;17935;51.120;13.132;2022-08-30T15:02:08;5.68;;;3.45;;
31306;SDS011;17935;51.120;13.132;2022-08-30T15:04:34;10.98;;;3.85;;
31306;SDS011;17935;51.120;13.132;2022-08-30T15:07:00;8.60;;;3.95;;
31306;SDS011;17935;51.120;13.132;2022-08-30T15:09:26;11.77;;;3.58;;
31306;SDS011;17935;51.120;13.132;2022-08-30T15:11:53;6.85;;;3.45;;
31306;SDS011;17935;51.120;13.132;2022-08-30T15:14:20;7.10;;;3.63;;
31306;SDS011;17935;51.120;13.132;2022-08-30T15:16:46;8.18;;;3.35;;
31306;SDS011;17935;51.120;13.132;2022-08-30T15:19:12;6.38;;;3.38;;
31306;SDS011;17935;51.120;13.132;2022-08-30T15:21:40;5.75;;;3.47;;
31306;SDS011;17935;51.120;13.132;2022-08-30T15:24:07;5.63;;;3.35;;
31306;SDS011;17935;51.120;13.132;2022-08-30T15:26:33;4.97;;;3.50;;
31306;SDS011;17935;51.120;13.132;2022-08-30T15:29:00;6.65;;;3.50;;
31306;SDS011;17935;51.120;13.132;2022-08-30T15:31:27;5.70;;;3.10;;
31306;SDS011;17935;51.120;13.132;2022-08-30T15:33:54;4.30;;;2.78;;
31306;SDS011;17935;51.120;13.132;2022-08-30T15:36:20;7.25;;;3.08;;
31306;SDS011;17935;51.120;13.132;2022-08-30T15:38:46;5.20;;;3.22;;